createdAt,value
2022-09-06T00:02:11.382Z,22.60
2022-09-06T00:04:57.399Z,22.50
2022-09-06T00:07:43.371Z,22.50
2022-09-06T00:10:30.793Z,22.50
2022-09-06T00:13:16.552Z,22.50
2022-09-06T00:16:14.492Z,22.40
2022-09-06T00:19:00.706Z,22.40
2022-09-06T00:21:46.746Z,22.40
2022-09-06T00:24:32.805Z,22.40
2022-09-06T00:27:18.926Z,22.40
2022-09-06T00:30:05.525Z,22.40
2022-09-06T00:32:51.712Z,22.30
2022-09-06T00:35:36.929Z,22.30
2022-09-06T00:38:23.103Z,22.30
2022-09-06T00:41:11.058Z,22.30
2022-09-06T00:43:56.764Z,22.20
2022-09-06T00:46:45.244Z,22.30
2022-09-06T00:49:46.452Z,22.20
2022-09-06T00:52:33.534Z,22.30
2022-09-06T00:55:20.506Z,22.20
2022-09-06T00:58:06.345Z,22.10
2022-09-06T01:00:52.243Z,22.10
2022-09-06T01:03:38.926Z,22.10
2022-09-06T01:06:33.879Z,22.00
2022-09-06T01:09:24.797Z,22.10
2022-09-06T01:12:25.921Z,22.10
2022-09-06T01:15:23.696Z,22.00
2022-09-06T01:18:26.934Z,22.00
2022-09-06T01:21:34.610Z,21.90
2022-09-06T01:24:45.302Z,21.90
2022-09-06T01:27:37.134Z,21.90
2022-09-06T01:30:24.016Z,21.80
2022-09-06T01:33:16.857Z,21.80
2022-09-06T01:36:08.023Z,21.80
2022-09-06T01:38:54.157Z,21.80
2022-09-06T01:41:40.247Z,21.90
2022-09-06T01:44:28.874Z,21.80
2022-09-06T01:47:22.049Z,21.70
2022-09-06T01:50:29.461Z,21.70
2022-09-06T01:53:53.018Z,21.70
2022-09-06T01:56:59.298Z,21.70
2022-09-06T02:00:12.361Z,21.70
2022-09-06T02:03:20.106Z,21.70
2022-09-06T02:06:20.586Z,21.70
2022-09-06T02:09:15.498Z,21.70
2022-09-06T02:12:04.323Z,21.70
2022-09-06T02:15:10.503Z,21.70
2022-09-06T02:18:03.414Z,21.70
2022-09-06T02:20:56.919Z,21.60
2022-09-06T02:23:44.314Z,21.70
2022-09-06T02:26:35.623Z,21.70
2022-09-06T02:29:21.473Z,21.70
2022-09-06T02:32:25.942Z,21.70
2022-09-06T02:35:16.854Z,21.70
2022-09-06T02:38:02.659Z,21.70
2022-09-06T02:40:50.331Z,21.70
2022-09-06T02:43:36.265Z,21.70
2022-09-06T02:46:23.788Z,21.60
2022-09-06T02:49:09.382Z,21.60
2022-09-06T02:51:55.504Z,21.60
2022-09-06T02:54:41.436Z,21.60
2022-09-06T02:57:27.380Z,21.50
2022-09-06T03:00:13.952Z,21.50
2022-09-06T03:03:00.161Z,21.50
2022-09-06T03:05:51.533Z,21.50
2022-09-06T03:08:38.210Z,21.50
2022-09-06T03:11:24.464Z,21.50
2022-09-06T03:14:10.559Z,21.50
2022-09-06T03:16:56.153Z,21.50
2022-09-06T03:19:41.941Z,21.50
2022-09-06T03:22:28.042Z,21.50
2022-09-06T03:25:13.476Z,21.50
2022-09-06T03:27:58.780Z,21.40
2022-09-06T03:30:49.089Z,21.40
2022-09-06T03:33:35.233Z,21.40
2022-09-06T03:36:22.396Z,21.50
2022-09-06T03:39:08.467Z,21.40
2022-09-06T03:41:54.620Z,21.40
2022-09-06T03:44:39.925Z,21.40
2022-09-06T03:47:25.900Z,21.40
2022-09-06T03:50:11.791Z,21.30
2022-09-06T03:52:57.651Z,21.30
2022-09-06T03:55:48.338Z,21.30
2022-09-06T03:58:34.137Z,21.20
2022-09-06T04:01:20.357Z,21.30
2022-09-06T04:04:06.240Z,21.30
2022-09-06T04:06:52.166Z,21.20
2022-09-06T04:09:37.957Z,21.30
2022-09-06T04:12:23.897Z,21.20
2022-09-06T04:15:09.868Z,21.20
2022-09-06T04:17:55.941Z,21.20
2022-09-06T04:20:42.569Z,21.10
2022-09-06T04:23:29.184Z,21.10
2022-09-06T04:26:15.049Z,21.00
2022-09-06T04:29:00.840Z,20.90
2022-09-06T04:31:46.439Z,20.90
2022-09-06T04:34:32.416Z,20.90
2022-09-06T04:37:20.092Z,20.90
2022-09-06T04:40:06.792Z,20.90
2022-09-06T04:42:52.637Z,20.90
2022-09-06T04:45:38.525Z,20.80
2022-09-06T04:48:24.544Z,20.80
2022-09-06T04:51:10.057Z,20.80
2022-09-06T04:53:55.950Z,20.80
2022-09-06T04:56:41.823Z,20.80
2022-09-06T04:59:27.803Z,20.80
2022-09-06T05:02:13.399Z,20.80
2022-09-06T05:04:59.572Z,20.80
2022-09-06T05:07:45.262Z,20.80
2022-09-06T05:10:31.102Z,20.70
2022-09-06T05:13:17.277Z,20.70
2022-09-06T05:16:08.534Z,20.70
2022-09-06T05:18:54.060Z,20.80
2022-09-06T05:21:39.638Z,20.80
2022-09-06T05:24:25.520Z,20.80
2022-09-06T05:27:12.862Z,20.80
2022-09-06T05:29:58.265Z,20.80
2022-09-06T05:32:43.774Z,21.00
2022-09-06T05:35:29.781Z,21.20
2022-09-06T05:38:15.762Z,21.40
2022-09-06T05:41:01.469Z,21.40
2022-09-06T05:43:49.424Z,21.50
2022-09-06T05:46:42.672Z,21.70
2022-09-06T05:49:32.725Z,21.90
2022-09-06T05:52:19.863Z,22.70
2022-09-06T05:55:06.575Z,23.20
2022-09-06T05:57:53.468Z,23.30
2022-09-06T06:00:39.478Z,23.40
2022-09-06T06:03:25.345Z,23.50
2022-09-06T06:06:11.097Z,23.50
2022-09-06T06:08:57.224Z,23.80
2022-09-06T06:11:43.640Z,24.30
2022-09-06T06:14:29.694Z,24.80
2022-09-06T06:17:16.376Z,25.20
2022-09-06T06:20:03.032Z,25.40
2022-09-06T06:22:48.588Z,25.60
2022-09-06T06:25:34.420Z,25.70
2022-09-06T06:28:21.066Z,25.50
2022-09-06T06:31:09.634Z,25.50
2022-09-06T06:33:54.981Z,25.50
2022-09-06T06:36:41.006Z,25.50
2022-09-06T06:39:27.085Z,25.80
2022-09-06T06:42:13.037Z,26.00
2022-09-06T06:45:10.525Z,26.20
2022-09-06T06:47:56.317Z,26.40
2022-09-06T06:50:42.535Z,26.50
2022-09-06T06:53:28.503Z,26.60
2022-09-06T06:56:28.424Z,26.70
2022-09-06T06:59:14.522Z,26.90
2022-09-06T07:02:00.882Z,27.00
2022-09-06T07:04:46.517Z,26.90
2022-09-06T07:07:33.582Z,27.10
2022-09-06T07:10:36.527Z,27.20
2022-09-06T07:13:22.408Z,27.50
2022-09-06T07:16:21.946Z,27.70
2022-09-06T07:19:09.302Z,27.80
2022-09-06T07:22:14.532Z,27.80
2022-09-06T07:25:00.019Z,27.90
2022-09-06T07:30:33.183Z,28.20
2022-09-06T07:33:19.082Z,28.10
2022-09-06T07:36:07.456Z,28.00
2022-09-06T07:38:54.439Z,28.10
2022-09-06T07:41:40.241Z,28.10
2022-09-06T07:44:26.581Z,28.00
2022-09-06T07:53:30.900Z,28.20
2022-09-06T07:56:17.975Z,28.50
2022-09-06T07:59:04.041Z,28.60
2022-09-06T08:01:50.516Z,28.80
2022-09-06T08:04:36.103Z,28.80
2022-09-06T08:10:22.761Z,29.10
2022-09-06T08:13:08.674Z,29.40
2022-09-06T08:16:00.411Z,29.60
2022-09-06T08:18:49.507Z,29.60
2022-09-06T08:21:35.497Z,29.70
2022-09-06T08:24:21.710Z,29.80
2022-09-06T08:27:11.289Z,29.90
2022-09-06T08:29:57.053Z,29.90
2022-09-06T08:32:43.057Z,30.00
2022-09-06T08:35:28.956Z,30.20
2022-09-06T08:38:14.801Z,30.30
2022-09-06T08:41:12.773Z,30.40
2022-09-06T08:47:15.240Z,30.70
2022-09-06T08:50:11.311Z,30.80
2022-09-06T08:53:18.091Z,30.90
2022-09-06T08:56:23.345Z,31.00
2022-09-06T08:59:17.639Z,31.20
2022-09-06T09:02:20.081Z,31.30
2022-09-06T09:05:13.088Z,31.20
2022-09-06T09:08:25.393Z,31.20
2022-09-06T09:11:25.473Z,31.20
2022-09-06T09:14:13.349Z,31.20
2022-09-06T09:17:06.130Z,31.10
2022-09-06T09:19:51.694Z,31.00
2022-09-06T09:22:39.996Z,30.80
2022-09-06T09:25:26.700Z,30.60
2022-09-06T09:28:23.699Z,30.50
2022-09-06T09:31:14.360Z,30.20
2022-09-06T09:34:04.521Z,30.40
2022-09-06T09:40:33.552Z,30.20
2022-09-06T09:43:40.219Z,30.20
2022-09-06T09:46:33.012Z,29.20
2022-09-06T09:49:29.914Z,30.00
2022-09-06T09:52:25.907Z,30.00
2022-09-06T09:55:12.884Z,29.90
2022-09-06T09:57:59.282Z,29.80
2022-09-06T10:00:45.911Z,29.90
2022-09-06T10:03:33.144Z,29.80
2022-09-06T10:09:42.341Z,29.90
2022-09-06T10:12:36.208Z,29.90
2022-09-06T10:15:40.384Z,30.10
2022-09-06T10:18:33.347Z,30.10
2022-09-06T10:27:20.160Z,29.90
2022-09-06T10:30:08.867Z,29.50
2022-09-06T10:33:12.217Z,29.80
2022-09-06T10:36:00.661Z,30.50
2022-09-06T10:38:54.294Z,29.70
2022-09-06T10:42:09.197Z,29.60
2022-09-06T10:45:12.176Z,29.40
2022-09-06T10:48:05.624Z,29.80
2022-09-06T10:51:03.255Z,28.90
2022-09-06T10:54:03.036Z,29.80
2022-09-06T10:57:09.330Z,29.90
2022-09-06T11:00:17.158Z,30.40
2022-09-06T11:06:32.667Z,30.00
2022-09-06T11:09:29.553Z,30.00
2022-09-06T11:12:24.116Z,30.40
2022-09-06T11:15:13.856Z,30.00
2022-09-06T11:18:15.358Z,30.10
2022-09-06T11:21:26.934Z,30.10
2022-09-06T11:24:15.957Z,30.20
2022-09-06T11:27:28.084Z,30.10
2022-09-06T11:30:18.694Z,30.20
2022-09-06T11:33:24.776Z,30.30
2022-09-06T11:36:38.238Z,29.70
2022-09-06T11:42:47.766Z,30.00
2022-09-06T11:45:59.856Z,29.90
2022-09-06T11:49:10.981Z,30.00
2022-09-06T11:51:56.993Z,30.40
2022-09-06T11:54:47.189Z,30.10
2022-09-06T11:57:33.260Z,30.20
2022-09-06T12:00:23.906Z,29.90
2022-09-06T12:06:41.965Z,30.00
2022-09-06T12:09:45.926Z,30.20
2022-09-06T12:12:48.594Z,30.10
2022-09-06T12:15:53.647Z,29.90
2022-09-06T12:18:48.785Z,29.50
2022-09-06T12:24:35.828Z,30.30
2022-09-06T12:27:34.984Z,30.00
2022-09-06T12:30:51.099Z,30.40
2022-09-06T12:33:38.863Z,30.30
2022-09-06T12:36:32.219Z,30.50
2022-09-06T12:39:18.132Z,30.30
2022-09-06T12:42:07.392Z,29.50
2022-09-06T12:44:55.668Z,30.20
2022-09-06T12:53:26.619Z,29.20
2022-09-06T12:56:13.003Z,30.20
2022-09-06T12:59:19.390Z,30.60
2022-09-06T13:02:15.916Z,29.90
2022-09-06T13:05:12.296Z,30.50
2022-09-06T13:08:03.205Z,30.10
2022-09-06T13:13:35.974Z,29.20
2022-09-06T13:16:27.996Z,28.90
2022-09-06T13:19:19.168Z,30.00
2022-09-06T13:22:08.037Z,29.90
2022-09-06T13:24:56.510Z,29.50
2022-09-06T13:27:49.918Z,29.90
2022-09-06T13:30:49.645Z,29.70
2022-09-06T13:33:37.802Z,30.10
2022-09-06T13:36:27.905Z,30.40
2022-09-06T13:39:54.948Z,30.00
2022-09-06T13:42:40.722Z,30.40
2022-09-06T13:45:31.758Z,30.10
2022-09-06T13:48:28.682Z,30.40
2022-09-06T13:51:23.996Z,30.10
2022-09-06T13:54:12.893Z,30.60
2022-09-06T13:56:58.735Z,29.90
2022-09-06T14:05:18.381Z,30.20
2022-09-06T14:08:04.020Z,30.70
2022-09-06T14:10:51.746Z,29.90
2022-09-06T14:13:37.450Z,30.60
2022-09-06T14:16:23.380Z,30.10
2022-09-06T14:21:55.888Z,30.30
2022-09-06T14:30:14.284Z,29.40
2022-09-06T14:33:00.156Z,30.30
2022-09-06T14:38:31.916Z,30.30
2022-09-06T14:41:20.132Z,30.30
2022-09-06T14:44:05.884Z,30.30
2022-09-06T14:52:27.233Z,29.50
2022-09-06T14:55:13.051Z,29.80
2022-09-06T14:57:59.650Z,30.10
2022-09-06T15:03:33.563Z,29.60
2022-09-06T15:06:21.573Z,30.40
2022-09-06T15:09:08.010Z,29.00
2022-09-06T15:14:41.168Z,29.80
2022-09-06T15:17:27.282Z,29.80
2022-09-06T15:20:13.267Z,29.90
2022-09-06T15:23:21.746Z,29.90
2022-09-06T15:26:08.288Z,29.00
2022-09-06T15:28:54.204Z,30.30
2022-09-06T15:31:41.909Z,29.90
2022-09-06T15:34:27.933Z,30.30
2022-09-06T15:37:13.540Z,29.80
2022-09-06T15:39:59.880Z,30.30
2022-09-06T15:45:45.645Z,30.20
2022-09-06T15:48:41.741Z,30.20
2022-09-06T15:54:16.186Z,29.00
2022-09-06T15:57:03.857Z,29.90
2022-09-06T15:59:49.268Z,30.20
2022-09-06T16:08:26.893Z,29.90
2022-09-06T16:11:15.037Z,29.20
2022-09-06T16:14:00.625Z,30.10
2022-09-06T16:16:46.591Z,29.00
2022-09-06T16:25:05.192Z,29.60
2022-09-06T16:27:51.433Z,30.00
2022-09-06T16:30:42.629Z,29.70
2022-09-06T16:33:29.524Z,30.00
2022-09-06T16:36:15.867Z,29.60
2022-09-06T16:39:02.130Z,30.10
2022-09-06T16:47:19.791Z,29.30
2022-09-06T16:50:06.185Z,29.90
2022-09-06T17:03:57.957Z,29.30
2022-09-06T17:09:35.239Z,28.40
2022-09-06T17:12:21.351Z,28.10
2022-09-06T17:17:52.881Z,29.20
2022-09-06T17:20:40.424Z,28.90
2022-09-06T17:23:26.942Z,28.70
2022-09-06T17:40:05.426Z,28.60
2022-09-06T17:42:52.299Z,28.40
2022-09-06T17:45:40.655Z,28.90
2022-09-06T17:48:28.318Z,28.40
2022-09-06T17:51:15.474Z,28.20
2022-09-06T17:56:49.024Z,28.30
2022-09-06T17:59:35.962Z,28.60
2022-09-06T18:02:22.013Z,28.40
2022-09-06T18:05:10.036Z,28.10
2022-09-06T18:13:29.311Z,28.00
2022-09-06T18:16:15.254Z,28.10
2022-09-06T18:19:04.660Z,27.80
2022-09-06T18:21:51.505Z,27.80
2022-09-06T18:24:37.447Z,27.50
2022-09-06T18:30:14.616Z,27.60
2022-09-06T18:33:00.645Z,27.70
2022-09-06T18:35:50.137Z,27.50
2022-09-06T18:38:37.602Z,27.50
2022-09-06T18:41:41.873Z,26.80
2022-09-06T18:44:33.649Z,27.10
2022-09-06T18:50:08.012Z,27.20
2022-09-06T18:52:54.165Z,27.00
2022-09-06T18:55:43.873Z,26.90
2022-09-06T18:58:29.996Z,27.10
2022-09-06T19:01:17.973Z,27.00
2022-09-06T19:04:05.172Z,27.00
2022-09-06T19:06:50.842Z,27.10
2022-09-06T19:15:10.783Z,26.50
2022-09-06T19:20:42.757Z,26.50
2022-09-06T19:23:31.852Z,26.50
2022-09-06T19:26:20.428Z,26.10
2022-09-06T19:29:09.014Z,26.50
2022-09-06T19:37:28.324Z,26.20
2022-09-06T19:40:14.252Z,26.30
2022-09-06T19:43:00.130Z,26.30
2022-09-06T19:45:46.429Z,25.90
2022-09-06T19:48:33.301Z,26.40
2022-09-06T19:51:19.983Z,26.30
2022-09-06T19:54:06.299Z,26.30
2022-09-06T19:59:39.365Z,26.20
2022-09-06T20:10:53.076Z,26.10
2022-09-06T20:13:40.408Z,26.10
2022-09-06T20:22:00.511Z,25.90
2022-09-06T20:24:46.694Z,25.70
2022-09-06T20:30:18.914Z,25.70
2022-09-06T20:36:02.732Z,25.60
2022-09-06T20:38:48.902Z,25.50
2022-09-06T20:41:34.771Z,25.40
2022-09-06T20:47:07.018Z,25.40
2022-09-06T20:52:41.088Z,26.00
2022-09-06T20:55:26.702Z,25.10
2022-09-06T20:58:12.719Z,25.20
2022-09-06T21:00:59.868Z,25.20
2022-09-06T21:06:36.226Z,25.00
2022-09-06T21:09:22.141Z,25.10
2022-09-06T21:12:08.338Z,24.90
2022-09-06T21:20:27.117Z,24.80
2022-09-06T21:23:15.586Z,24.70
2022-09-06T21:26:05.084Z,24.70
2022-09-06T21:31:38.178Z,24.50
2022-09-06T21:34:24.244Z,24.40
2022-09-06T21:37:09.904Z,24.60
2022-09-06T21:39:55.550Z,24.30
2022-09-06T21:42:41.531Z,24.60
2022-09-06T21:45:27.435Z,24.40
2022-09-06T21:53:51.979Z,24.40
2022-09-06T21:56:39.422Z,24.60
2022-09-06T21:59:24.937Z,24.10
2022-09-06T22:02:10.762Z,24.20
2022-09-06T22:07:42.850Z,24.20
2022-09-06T22:10:28.672Z,24.30
2022-09-06T22:13:15.798Z,24.20
2022-09-06T22:16:07.538Z,24.00
2022-09-06T22:18:54.091Z,24.20
2022-09-06T22:21:40.281Z,24.00
2022-09-06T22:27:12.389Z,24.00
2022-09-06T22:32:44.235Z,24.00
2022-09-06T22:35:30.419Z,23.90
2022-09-06T22:38:15.732Z,23.90
2022-09-06T22:49:20.185Z,23.30
2022-09-06T22:52:05.662Z,23.70
2022-09-06T22:54:51.618Z,23.80
2022-09-06T23:00:23.489Z,23.80
2022-09-06T23:03:09.418Z,23.80
2022-09-06T23:06:00.761Z,23.80
2022-09-06T23:08:46.433Z,23.90
2022-09-06T23:11:32.774Z,23.80
2022-09-06T23:14:18.669Z,23.80
2022-09-06T23:19:50.756Z,23.90
2022-09-06T23:25:23.395Z,23.90
2022-09-06T23:28:09.272Z,23.90
2022-09-06T23:30:54.795Z,23.90
2022-09-06T23:36:28.148Z,24.00
2022-09-06T23:39:13.957Z,24.10
2022-09-06T23:44:48.196Z,23.90
2022-09-06T23:53:06.620Z,24.40
2022-09-06T23:55:52.457Z,24.30
2022-09-06T23:58:39.177Z,24.20
